createdAt,value
2022-08-30T00:00:47.030Z,14.80
2022-08-30T00:39:19.691Z,14.52
2022-08-30T00:42:19.402Z,14.40
2022-08-30T00:45:51.936Z,14.37
2022-08-30T00:55:53.130Z,14.37
2022-08-30T01:06:10.762Z,14.31
2022-08-30T01:13:07.824Z,14.44
2022-08-30T01:41:10.428Z,13.96
2022-08-30T01:44:50.061Z,14.09
2022-08-30T02:11:14.305Z,13.93
2022-08-30T02:12:43.486Z,13.99
2022-08-30T02:27:02.491Z,13.87
2022-08-30T02:33:58.315Z,13.80
2022-08-30T03:11:36.084Z,13.96
2022-08-30T03:24:24.409Z,13.89
2022-08-30T03:27:22.787Z,13.80
2022-08-30T03:29:57.344Z,13.88
2022-08-30T03:32:24.691Z,13.95
2022-08-30T03:34:51.403Z,13.98
2022-08-30T03:37:18.434Z,13.96
2022-08-30T03:39:45.668Z,14.01
2022-08-30T03:42:14.530Z,14.08
2022-08-30T03:45:33.660Z,14.10
2022-08-30T03:48:17.977Z,13.97
2022-08-30T03:50:44.676Z,14.00
2022-08-30T03:53:11.397Z,14.15
2022-08-30T03:55:38.076Z,14.12
2022-08-30T03:58:04.791Z,14.24
2022-08-30T04:00:31.527Z,14.38
2022-08-30T04:02:58.371Z,14.38
2022-08-30T04:05:25.115Z,14.23
2022-08-30T04:08:11.677Z,14.06
2022-08-30T04:10:58.714Z,14.08
2022-08-30T04:13:25.509Z,14.24
2022-08-30T04:21:13.495Z,14.34
2022-08-30T04:24:15.207Z,14.41
2022-08-30T04:26:42.383Z,14.53
2022-08-30T04:29:15.240Z,14.65
2022-08-30T04:31:49.791Z,14.59
2022-08-30T04:34:30.127Z,14.67
2022-08-30T04:36:57.063Z,14.59
2022-08-30T04:39:26.565Z,14.65
2022-08-30T04:41:53.632Z,14.73
2022-08-30T04:44:20.581Z,14.71
2022-08-30T04:46:47.977Z,14.77
2022-08-30T04:49:14.978Z,14.81
2022-08-30T04:51:41.768Z,14.86
2022-08-30T05:00:45.848Z,14.94
2022-08-30T05:03:13.294Z,15.00
2022-08-30T05:05:40.190Z,15.08
2022-08-30T05:08:11.760Z,15.15
2022-08-30T05:10:47.374Z,15.25
2022-08-30T05:13:16.118Z,15.30
2022-08-30T05:15:43.146Z,15.37
2022-08-30T05:18:11.564Z,15.39
2022-08-30T05:20:41.045Z,15.42
2022-08-30T05:23:07.991Z,15.42
2022-08-30T05:25:47.495Z,15.46
2022-08-30T05:28:14.502Z,15.57
2022-08-30T05:33:52.376Z,15.54
2022-08-30T05:36:20.702Z,15.66
2022-08-30T05:38:47.571Z,15.65
2022-08-30T05:41:15.489Z,15.71
2022-08-30T05:43:42.332Z,15.86
2022-08-30T05:46:11.928Z,15.92
2022-08-30T05:48:40.306Z,15.89
2022-08-30T05:51:13.574Z,15.95
2022-08-30T05:53:41.239Z,16.00
2022-08-30T05:56:10.635Z,16.12
2022-08-30T05:58:37.705Z,16.12
2022-08-30T06:01:05.040Z,16.15
2022-08-30T06:03:37.725Z,16.20
2022-08-30T06:09:13.538Z,16.29
2022-08-30T06:11:41.313Z,16.27
2022-08-30T06:14:08.212Z,16.28
2022-08-30T06:16:35.931Z,16.24
2022-08-30T06:19:08.352Z,16.27
2022-08-30T06:44:13.444Z,16.24
2022-08-30T06:46:40.306Z,16.28
2022-08-30T06:49:07.906Z,16.33
2022-08-30T06:51:39.804Z,16.30
2022-08-30T06:54:09.271Z,16.29
2022-08-30T06:56:40.287Z,16.37
2022-08-30T06:59:09.382Z,16.43
2022-08-30T07:01:36.422Z,16.47
2022-08-30T07:04:03.717Z,16.55
2022-08-30T07:06:33.090Z,16.57
2022-08-30T07:08:59.975Z,16.64
2022-08-30T07:11:36.698Z,16.72
2022-08-30T07:14:04.969Z,16.76
2022-08-30T07:16:38.397Z,16.79
2022-08-30T07:19:06.455Z,16.77
2022-08-30T07:21:43.980Z,16.76
2022-08-30T07:24:11.961Z,16.72
2022-08-30T07:26:52.028Z,16.69
2022-08-30T07:29:20.543Z,16.73
2022-08-30T07:31:50.444Z,16.76
2022-08-30T07:34:19.819Z,16.85
2022-08-30T07:36:48.243Z,16.78
2022-08-30T07:39:15.071Z,16.88
2022-08-30T07:41:41.967Z,16.92
2022-08-30T07:44:09.530Z,16.92
2022-08-30T07:46:38.516Z,16.92
2022-08-30T07:49:11.444Z,16.89
2022-08-30T07:51:48.132Z,16.92
2022-08-30T07:54:15.855Z,16.89
2022-08-30T07:56:42.705Z,16.87
2022-08-30T07:59:09.718Z,16.84
2022-08-30T08:01:36.577Z,16.76
2022-08-30T08:04:03.638Z,16.88
2022-08-30T08:06:34.960Z,16.99
2022-08-30T08:09:02.610Z,16.92
2022-08-30T08:11:33.438Z,16.91
2022-08-30T08:14:01.478Z,16.94
2022-08-30T08:16:33.013Z,16.85
2022-08-30T08:18:59.977Z,16.85
2022-08-30T08:21:39.911Z,16.95
2022-08-30T08:24:06.861Z,16.96
2022-08-30T08:26:38.007Z,16.97
2022-08-30T08:29:09.018Z,16.91
2022-08-30T08:31:36.159Z,16.80
2022-08-30T09:03:40.068Z,17.63
2022-08-30T09:06:53.143Z,17.67
2022-08-30T09:13:54.404Z,17.73
2022-08-30T10:13:16.827Z,19.54
2022-08-30T10:15:51.060Z,19.55
2022-08-30T10:18:35.116Z,19.63
2022-08-30T10:25:08.402Z,19.71
2022-08-30T10:27:45.792Z,19.89
2022-08-30T10:30:14.612Z,19.91
2022-08-30T10:33:08.638Z,20.07
2022-08-30T10:35:48.211Z,20.14
2022-08-30T10:38:37.256Z,20.21
2022-08-30T10:41:29.700Z,20.31
2022-08-30T10:44:04.416Z,20.30
2022-08-30T10:46:37.743Z,20.35
2022-08-30T10:49:09.013Z,20.20
2022-08-30T10:51:55.796Z,20.57
2022-08-30T10:54:38.958Z,20.60
2022-08-30T10:57:05.888Z,20.61
2022-08-30T10:59:33.848Z,20.61
2022-08-30T11:02:09.828Z,20.78
2022-08-30T11:04:50.741Z,20.75
2022-08-30T11:07:37.637Z,20.78
2022-08-30T11:10:35.524Z,20.82
2022-08-30T11:13:20.990Z,20.78
2022-08-30T11:16:06.045Z,20.73
2022-08-30T11:18:42.191Z,20.75
2022-08-30T11:21:40.582Z,21.05
2022-08-30T11:24:22.073Z,21.24
2022-08-30T11:26:48.787Z,21.26
2022-08-30T11:29:36.065Z,21.27
2022-08-30T11:32:17.528Z,21.11
2022-08-30T11:34:48.341Z,21.31
2022-08-30T11:37:37.445Z,21.37
2022-08-30T11:40:26.394Z,21.62
2022-08-30T11:42:55.824Z,21.70
2022-08-30T11:45:24.683Z,21.81
2022-08-30T11:48:00.014Z,21.90
2022-08-30T11:50:29.871Z,22.12
2022-08-30T11:53:21.141Z,22.27
2022-08-30T11:56:12.579Z,22.23
2022-08-30T11:58:48.417Z,22.04
2022-08-30T12:01:40.924Z,21.86
2022-08-30T12:04:28.302Z,21.79
2022-08-30T12:07:00.828Z,21.57
2022-08-30T12:09:28.340Z,21.42
2022-08-30T12:12:10.373Z,21.12
2022-08-30T12:14:47.631Z,20.84
2022-08-30T12:17:41.841Z,20.68
2022-08-30T12:20:40.764Z,20.53
2022-08-30T12:23:38.182Z,20.29
2022-08-30T12:26:25.283Z,20.24
2022-08-30T12:28:53.011Z,19.93
2022-08-30T12:31:23.418Z,19.89
2022-08-30T12:33:58.742Z,19.84
2022-08-30T12:36:51.044Z,19.98
2022-08-30T12:39:28.197Z,20.10
2022-08-30T12:41:55.995Z,20.06
2022-08-30T12:44:33.569Z,20.07
2022-08-30T12:47:14.119Z,20.05
2022-08-30T12:49:49.022Z,20.06
2022-08-30T12:52:32.588Z,20.02
2022-08-30T12:55:22.586Z,19.95
2022-08-30T12:58:10.180Z,20.02
2022-08-30T13:00:43.386Z,20.04
2022-08-30T13:03:41.161Z,20.09
2022-08-30T13:06:21.149Z,20.08
2022-08-30T13:09:01.267Z,20.03
2022-08-30T13:11:49.061Z,20.12
2022-08-30T13:14:38.880Z,20.14
2022-08-30T13:17:38.988Z,20.21
2022-08-30T13:20:11.778Z,20.25
2022-08-30T13:23:06.429Z,20.39
2022-08-30T13:26:06.939Z,20.06
2022-08-30T13:29:08.809Z,19.80
2022-08-30T13:32:00.626Z,19.66
2022-08-30T13:34:37.800Z,19.71
2022-08-30T13:37:49.858Z,19.87
2022-08-30T13:44:48.246Z,19.49
2022-08-30T13:50:05.034Z,19.39
2022-08-30T13:52:34.409Z,19.52
2022-08-30T13:55:05.334Z,19.52
2022-08-30T13:57:54.576Z,19.47
2022-08-30T14:00:22.602Z,19.52
2022-08-30T14:02:57.243Z,19.44
2022-08-30T14:08:47.783Z,19.49
2022-08-30T14:11:21.135Z,19.59
2022-08-30T14:16:45.147Z,19.87
2022-08-30T14:19:14.093Z,19.95
2022-08-30T14:21:41.074Z,19.97
2022-08-30T14:27:38.170Z,20.15
2022-08-30T14:30:06.214Z,20.35
2022-08-30T14:32:33.540Z,20.63
2022-08-30T14:35:02.025Z,20.71
2022-08-30T14:37:30.993Z,20.75
2022-08-30T14:39:58.246Z,20.60
2022-08-30T14:42:27.556Z,20.63
2022-08-30T14:44:56.616Z,20.67
2022-08-30T14:47:28.621Z,20.93
2022-08-30T14:50:07.005Z,20.91
2022-08-30T14:52:45.344Z,21.03
2022-08-30T14:58:04.447Z,21.13
2022-08-30T15:00:31.412Z,21.16
2022-08-30T15:26:22.316Z,22.11
2022-08-30T15:28:54.781Z,22.11
2022-08-30T15:31:32.298Z,21.90
2022-08-30T15:33:59.687Z,21.73
2022-08-30T15:47:24.250Z,21.52
2022-08-30T15:50:14.458Z,21.38
2022-08-30T15:53:01.737Z,21.19
2022-08-30T15:55:43.837Z,21.17
2022-08-30T16:17:00.505Z,22.34
2022-08-30T16:23:04.154Z,22.25
2022-08-30T16:26:03.365Z,22.85
2022-08-30T16:51:54.766Z,23.29
2022-08-30T16:54:22.031Z,23.28
2022-08-30T16:56:58.782Z,23.30
2022-08-30T16:59:25.781Z,23.26
2022-08-30T17:01:53.808Z,23.18
2022-08-30T17:04:21.380Z,22.64
2022-08-30T17:06:49.966Z,22.27
2022-08-30T17:09:18.835Z,21.69
2022-08-30T17:11:45.875Z,21.26
2022-08-30T17:14:12.741Z,20.76
2022-08-30T17:16:41.482Z,20.44
2022-08-30T17:19:09.459Z,20.16
2022-08-30T17:21:39.016Z,19.93
2022-08-30T17:24:06.114Z,19.79
2022-08-30T17:26:34.903Z,19.72
2022-08-30T17:29:02.335Z,19.55
2022-08-30T17:31:58.147Z,19.38
2022-08-30T17:34:26.476Z,19.17
2022-08-30T17:36:55.050Z,19.06
2022-08-30T17:39:23.540Z,18.96
2022-08-30T17:41:51.572Z,18.84
2022-08-30T17:44:22.191Z,18.76
2022-08-30T17:46:52.782Z,18.86
2022-08-30T17:49:19.584Z,18.92
2022-08-30T17:51:47.832Z,18.84
2022-08-30T17:54:14.960Z,18.74
2022-08-30T17:56:42.443Z,18.60
2022-08-30T17:59:13.920Z,18.49
2022-08-30T18:01:44.359Z,18.39
2022-08-30T18:04:12.989Z,18.35
2022-08-30T18:06:40.064Z,18.29
2022-08-30T18:09:08.277Z,18.24
2022-08-30T18:11:36.759Z,18.18
2022-08-30T18:14:03.933Z,18.16
2022-08-30T18:16:33.280Z,18.09
2022-08-30T18:19:03.761Z,18.02
2022-08-30T18:21:31.434Z,17.94
2022-08-30T18:23:58.235Z,17.86
2022-08-30T18:26:25.424Z,17.71
2022-08-30T18:28:52.192Z,17.67
2022-08-30T18:31:25.227Z,17.57
2022-08-30T18:33:52.094Z,17.49
2022-08-30T18:36:18.941Z,17.47
2022-08-30T18:38:45.661Z,17.43
2022-08-30T18:41:16.816Z,17.38
2022-08-30T18:43:44.744Z,17.37
2022-08-30T18:46:15.043Z,17.34
2022-08-30T18:48:46.034Z,17.34
2022-08-30T18:51:18.904Z,17.40
2022-08-30T18:53:48.543Z,17.40
2022-08-30T18:56:18.413Z,17.42
2022-08-30T18:58:47.597Z,17.33
2022-08-30T19:01:22.820Z,17.38
2022-08-30T19:03:50.009Z,17.32
2022-08-30T19:07:21.511Z,17.23
2022-08-30T19:09:55.778Z,17.17
2022-08-30T19:12:27.724Z,17.16
2022-08-30T19:15:17.175Z,17.15
2022-08-30T19:28:12.243Z,16.98
2022-08-30T20:48:15.990Z,15.39
2022-08-30T20:50:56.195Z,15.41
2022-08-30T20:53:26.040Z,15.34
2022-08-30T21:00:21.449Z,15.19
2022-08-30T21:03:48.534Z,15.08
2022-08-30T21:06:26.408Z,15.12
2022-08-30T21:08:59.941Z,15.16
2022-08-30T21:12:34.087Z,15.06
2022-08-30T21:19:09.107Z,15.01
2022-08-30T21:22:16.284Z,15.07
2022-08-30T21:25:07.294Z,15.08
2022-08-30T21:27:44.415Z,15.03
2022-08-30T21:30:17.137Z,15.00
2022-08-30T21:32:59.886Z,15.03
2022-08-30T21:39:16.121Z,15.01
2022-08-30T21:42:04.643Z,14.97
2022-08-30T21:44:44.003Z,14.88
2022-08-30T21:47:14.743Z,14.91
2022-08-30T21:57:05.876Z,14.86
2022-08-30T22:01:23.935Z,14.74
2022-08-30T22:17:37.047Z,14.51
2022-08-30T22:20:42.356Z,14.35
2022-08-30T22:27:07.840Z,14.18
2022-08-30T22:30:13.418Z,14.03
2022-08-30T22:33:33.941Z,14.02
2022-08-30T22:36:23.735Z,14.03
2022-08-30T22:39:03.782Z,14.00
2022-08-30T22:57:41.211Z,14.18
2022-08-30T23:32:06.263Z,13.65
2022-08-30T23:35:26.790Z,13.55
2022-08-30T23:38:56.630Z,13.54
2022-08-30T23:42:01.622Z,13.56
2022-08-30T23:44:57.718Z,13.61
2022-08-30T23:47:49.987Z,13.59
2022-08-30T23:51:01.943Z,13.55
2022-08-30T23:54:58.972Z,13.55
